createdAt,value
2019-02-23T00:00:27.521Z,47.59
2019-02-23T00:03:02.376Z,47.49
2019-02-23T00:05:35.629Z,47.37
2019-02-23T00:08:08.869Z,48.02
2019-02-23T00:10:42.115Z,47.97
2019-02-23T00:13:15.346Z,47.92
2019-02-23T00:15:48.897Z,47.68
2019-02-23T00:18:22.130Z,47.70
2019-02-23T00:20:55.373Z,47.76
2019-02-23T00:23:28.611Z,47.73
2019-02-23T00:26:01.861Z,47.13
2019-02-23T00:28:35.100Z,47.49
2019-02-23T00:31:08.342Z,47.80
2019-02-23T00:33:41.576Z,47.55
2019-02-23T00:36:14.831Z,48.08
2019-02-23T00:38:48.133Z,47.34
2019-02-23T00:41:21.386Z,47.69
2019-02-23T00:43:54.624Z,47.68
2019-02-23T00:46:28.837Z,48.04
2019-02-23T00:49:02.076Z,48.42
2019-02-23T00:51:35.338Z,48.01
2019-02-23T00:54:08.571Z,47.91
2019-02-23T00:56:41.831Z,48.20
2019-02-23T00:59:15.064Z,47.82
2019-02-23T01:01:48.320Z,48.36
2019-02-23T01:04:21.550Z,48.23
2019-02-23T01:06:54.804Z,47.65
2019-02-23T01:09:28.053Z,47.74
2019-02-23T01:12:01.306Z,48.24
2019-02-23T01:14:34.544Z,48.20
2019-02-23T01:17:07.787Z,47.97
2019-02-23T01:19:47.832Z,47.89
2019-02-23T01:22:15.986Z,48.10
2019-02-23T01:24:50.282Z,47.86
2019-02-23T01:27:23.544Z,48.04
2019-02-23T01:29:56.785Z,48.27
2019-02-23T01:32:30.034Z,47.98
2019-02-23T01:35:04.115Z,48.34
2019-02-23T01:37:37.371Z,48.43
2019-02-23T01:40:10.605Z,48.27
2019-02-23T01:42:43.861Z,48.28
2019-02-23T01:45:17.090Z,48.16
2019-02-23T01:47:50.345Z,47.99
2019-02-23T01:50:23.579Z,48.12
2019-02-23T01:52:56.826Z,47.27
2019-02-23T01:55:30.055Z,47.40
2019-02-23T01:58:03.306Z,47.57
2019-02-23T02:00:36.542Z,47.66
2019-02-23T02:03:09.805Z,47.45
2019-02-23T02:05:43.047Z,47.69
2019-02-23T02:08:16.288Z,47.36
2019-02-23T02:10:49.521Z,47.39
2019-02-23T02:13:22.757Z,47.43
2019-02-23T02:15:55.986Z,47.49
2019-02-23T02:18:29.234Z,47.37
2019-02-23T02:21:02.462Z,47.84
2019-02-23T02:23:35.708Z,47.55
2019-02-23T02:26:08.948Z,47.43
2019-02-23T02:28:42.207Z,47.37
2019-02-23T02:31:15.449Z,47.39
2019-02-23T02:34:06.367Z,47.80
2019-02-23T02:36:39.595Z,47.64
2019-02-23T02:39:13.199Z,47.58
2019-02-23T02:41:46.452Z,47.36
2019-02-23T02:44:19.700Z,47.42
2019-02-23T02:46:52.923Z,47.52
2019-02-23T02:49:26.178Z,47.55
2019-02-23T02:51:59.409Z,47.51
2019-02-23T02:54:32.665Z,47.44
2019-02-23T02:57:05.907Z,47.89
2019-02-23T02:59:39.151Z,48.41
2019-02-23T03:02:12.389Z,48.41
2019-02-23T03:04:45.634Z,48.02
2019-02-23T03:07:18.875Z,47.96
2019-02-23T03:09:52.122Z,48.28
2019-02-23T03:12:25.349Z,48.06
2019-02-23T03:14:58.595Z,48.12
2019-02-23T03:17:31.831Z,48.02
2019-02-23T03:20:06.826Z,48.06
2019-02-23T03:22:40.058Z,48.14
2019-02-23T03:25:13.303Z,47.92
2019-02-23T03:27:46.535Z,47.49
2019-02-23T03:30:19.785Z,47.69
2019-02-23T03:32:53.090Z,47.56
2019-02-23T03:35:26.329Z,47.47
2019-02-23T03:37:59.551Z,47.51
2019-02-23T03:40:32.801Z,47.57
2019-02-23T03:43:06.028Z,47.49
2019-02-23T03:45:39.291Z,47.48
2019-02-23T03:48:12.528Z,47.53
2019-02-23T03:50:49.186Z,48.02
2019-02-23T03:53:20.702Z,47.79
2019-02-23T03:55:53.956Z,47.93
2019-02-23T03:58:27.191Z,47.78
2019-02-23T04:01:00.450Z,47.92
2019-02-23T04:03:33.681Z,47.94
2019-02-23T04:06:06.925Z,47.79
2019-02-23T04:08:40.164Z,47.65
2019-02-23T04:11:13.419Z,47.46
2019-02-23T04:13:46.651Z,47.56
2019-02-23T04:16:19.898Z,47.46
2019-02-23T04:18:53.148Z,47.24
2019-02-23T04:21:26.387Z,47.14
2019-02-23T04:24:00.691Z,47.55
2019-02-23T04:26:33.941Z,47.22
2019-02-23T04:29:07.174Z,47.75
2019-02-23T04:31:40.434Z,47.62
2019-02-23T04:34:13.654Z,47.53
2019-02-23T04:36:46.901Z,47.33
2019-02-23T04:39:20.131Z,47.40
2019-02-23T04:41:53.387Z,47.19
2019-02-23T04:44:27.591Z,47.38
2019-02-23T04:47:00.846Z,47.53
2019-02-23T04:49:34.079Z,47.40
2019-02-23T04:52:07.326Z,47.48
2019-02-23T04:54:40.560Z,47.51
2019-02-23T04:57:13.811Z,47.60
2019-02-23T04:59:47.067Z,47.28
2019-02-23T05:02:20.293Z,46.95
2019-02-23T05:04:53.525Z,46.88
2019-02-23T05:07:26.771Z,46.53
2019-02-23T05:10:00.012Z,46.85
2019-02-23T05:12:33.263Z,46.90
2019-02-23T05:15:08.533Z,47.05
2019-02-23T05:17:41.774Z,46.55
2019-02-23T05:20:15.009Z,46.96
2019-02-23T05:22:48.266Z,46.96
2019-02-23T05:25:21.482Z,46.99
2019-02-23T05:27:54.741Z,46.88
2019-02-23T05:30:27.979Z,46.75
2019-02-23T05:33:01.216Z,46.34
2019-02-23T05:35:34.445Z,46.12
2019-02-23T05:38:07.693Z,45.72
2019-02-23T05:40:40.920Z,45.39
2019-02-23T05:43:14.175Z,45.26
2019-02-23T05:45:47.406Z,45.06
2019-02-23T05:48:20.657Z,44.97
2019-02-23T05:50:53.890Z,44.85
2019-02-23T05:53:27.133Z,44.68
2019-02-23T05:56:00.362Z,44.53
2019-02-23T05:58:33.608Z,44.45
2019-02-23T06:01:06.839Z,44.39
2019-02-23T06:03:40.392Z,44.37
2019-02-23T06:06:13.628Z,44.37
2019-02-23T06:08:46.947Z,44.29
2019-02-23T06:11:20.183Z,44.26
2019-02-23T06:13:53.502Z,44.15
2019-02-23T06:16:26.719Z,44.09
2019-02-23T06:18:59.971Z,44.10
2019-02-23T06:21:33.208Z,44.14
2019-02-23T06:24:06.466Z,44.06
2019-02-23T06:26:39.698Z,44.02
2019-02-23T06:29:12.959Z,44.21
2019-02-23T06:31:46.185Z,44.15
2019-02-23T06:34:19.432Z,44.17
2019-02-23T06:36:52.666Z,44.44
2019-02-23T06:39:25.913Z,44.78
2019-02-23T06:41:59.148Z,45.07
2019-02-23T06:44:32.402Z,45.58
2019-02-23T06:47:05.646Z,45.66
2019-02-23T06:49:38.901Z,45.82
2019-02-23T06:52:12.508Z,45.71
2019-02-23T06:54:45.752Z,45.80
2019-02-23T06:57:18.991Z,45.67
2019-02-23T06:59:52.250Z,45.57
2019-02-23T07:02:25.488Z,45.56
2019-02-23T07:04:58.735Z,45.44
2019-02-23T07:07:31.977Z,45.46
2019-02-23T07:10:08.321Z,45.31
2019-02-23T07:12:41.570Z,45.31
2019-02-23T07:15:14.812Z,45.27
2019-02-23T07:17:48.045Z,45.20
2019-02-23T07:20:21.284Z,45.19
2019-02-23T07:22:54.523Z,45.21
2019-02-23T07:25:27.765Z,45.11
2019-02-23T07:28:00.993Z,45.20
2019-02-23T07:30:34.240Z,45.09
2019-02-23T07:33:07.476Z,45.16
2019-02-23T07:35:40.731Z,45.06
2019-02-23T07:38:13.958Z,45.08
2019-02-23T07:40:47.202Z,45.08
2019-02-23T07:43:20.437Z,45.12
2019-02-23T07:45:53.673Z,45.20
2019-02-23T07:48:26.910Z,45.30
2019-02-23T07:51:00.145Z,44.93
2019-02-23T07:53:33.380Z,44.88
2019-02-23T07:56:06.621Z,44.78
2019-02-23T07:58:39.858Z,44.70
2019-02-23T08:01:14.081Z,44.60
2019-02-23T08:07:07.653Z,44.22
2019-02-23T08:09:41.854Z,44.46
2019-02-23T08:12:15.117Z,44.52
2019-02-23T08:14:48.355Z,44.37
2019-02-23T08:17:21.595Z,44.36
2019-02-23T08:19:54.830Z,44.24
2019-02-23T08:22:37.056Z,44.07
2019-02-23T08:25:04.780Z,44.03
2019-02-23T08:27:38.039Z,44.00
2019-02-23T08:30:15.106Z,43.97
2019-02-23T08:32:48.357Z,43.94
2019-02-23T08:35:21.593Z,43.87
2019-02-23T08:37:54.836Z,43.45
2019-02-23T08:40:28.069Z,43.38
2019-02-23T08:43:01.302Z,43.04
2019-02-23T08:45:34.535Z,43.05
2019-02-23T08:48:07.791Z,42.77
2019-02-23T08:50:41.025Z,42.51
2019-02-23T08:53:14.279Z,42.75
2019-02-23T08:55:47.518Z,42.43
2019-02-23T08:58:20.776Z,42.27
2019-02-23T09:00:54.000Z,42.21
2019-02-23T09:03:27.245Z,42.53
2019-02-23T09:06:00.469Z,43.25
2019-02-23T09:08:33.709Z,42.30
2019-02-23T09:11:06.944Z,42.72
2019-02-23T09:13:40.175Z,42.99
2019-02-23T09:16:13.418Z,43.05
2019-02-23T09:18:47.621Z,42.46
2019-02-23T09:21:20.850Z,42.43
2019-02-23T09:23:54.102Z,42.63
2019-02-23T09:26:27.334Z,42.69
2019-02-23T09:29:00.572Z,42.63
2019-02-23T09:31:33.802Z,42.43
2019-02-23T09:34:07.050Z,42.37
2019-02-23T09:36:40.276Z,42.40
2019-02-23T09:39:13.536Z,42.47
2019-02-23T09:41:46.773Z,42.42
2019-02-23T09:44:20.048Z,42.32
2019-02-23T09:46:53.250Z,41.99
2019-02-23T09:49:26.500Z,42.37
2019-02-23T09:51:59.729Z,42.33
2019-02-23T09:54:32.996Z,42.31
2019-02-23T09:57:06.207Z,42.47
2019-02-23T09:59:40.277Z,42.58
2019-02-23T10:02:13.585Z,42.67
2019-02-23T10:04:46.831Z,42.64
2019-02-23T10:07:20.061Z,42.72
2019-02-23T10:09:53.303Z,42.46
2019-02-23T10:12:26.537Z,42.42
2019-02-23T10:14:59.786Z,42.48
2019-02-23T10:17:33.027Z,42.40
2019-02-23T10:20:09.069Z,42.47
2019-02-23T10:22:42.309Z,42.67
2019-02-23T10:25:15.561Z,42.68
2019-02-23T10:27:48.784Z,42.71
2019-02-23T10:30:22.052Z,42.71
2019-02-23T10:32:55.274Z,42.99
2019-02-23T10:35:28.519Z,43.37
2019-02-23T10:38:01.772Z,43.45
2019-02-23T10:40:35.030Z,43.33
2019-02-23T10:43:08.271Z,43.13
2019-02-23T10:45:41.522Z,43.11
2019-02-23T10:48:14.762Z,43.01
2019-02-23T10:50:48.017Z,42.89
2019-02-23T10:53:21.256Z,42.99
2019-02-23T10:55:54.503Z,42.94
2019-02-23T10:58:27.741Z,42.68
2019-02-23T11:01:02.074Z,42.60
2019-02-23T11:03:35.385Z,42.71
2019-02-23T11:06:08.666Z,42.61
2019-02-23T11:08:41.904Z,42.53
2019-02-23T11:11:15.219Z,42.29
2019-02-23T11:13:48.391Z,42.23
2019-02-23T11:16:21.650Z,42.24
2019-02-23T11:18:54.897Z,41.98
2019-02-23T11:21:28.147Z,41.83
2019-02-23T11:24:01.390Z,41.72
2019-02-23T11:26:34.639Z,41.76
2019-02-23T11:29:07.878Z,41.89
2019-02-23T11:31:41.124Z,41.75
2019-02-23T11:34:14.355Z,41.42
2019-02-23T11:36:47.888Z,41.23
2019-02-23T11:39:21.122Z,41.29
2019-02-23T11:41:54.369Z,41.24
2019-02-23T11:44:27.683Z,41.43
2019-02-23T11:47:00.930Z,41.22
2019-02-23T11:49:34.166Z,41.18
2019-02-23T11:52:07.441Z,41.28
2019-02-23T11:54:40.652Z,41.25
2019-02-23T11:57:13.902Z,40.94
2019-02-23T11:59:47.139Z,40.99
2019-02-23T12:02:20.384Z,41.04
2019-02-23T12:04:53.627Z,40.96
2019-02-23T12:07:26.865Z,40.88
2019-02-23T12:10:00.331Z,40.87
2019-02-23T12:12:33.537Z,40.62
2019-02-23T12:15:07.710Z,40.78
2019-02-23T12:17:40.972Z,40.69
2019-02-23T12:20:14.206Z,41.46
2019-02-23T12:22:47.458Z,41.66
2019-02-23T12:25:20.692Z,41.60
2019-02-23T12:27:53.955Z,41.45
2019-02-23T12:30:27.194Z,41.44
2019-02-23T12:33:00.432Z,41.73
2019-02-23T12:35:33.669Z,41.96
2019-02-23T12:38:06.918Z,42.09
2019-02-23T12:40:40.155Z,41.79
2019-02-23T12:43:13.401Z,41.82
2019-02-23T12:45:46.642Z,42.02
2019-02-23T12:48:19.881Z,42.01
2019-02-23T12:50:53.113Z,41.99
2019-02-23T12:53:26.356Z,42.12
2019-02-23T12:56:00.557Z,42.34
2019-02-23T12:58:33.799Z,41.88
2019-02-23T13:01:07.031Z,42.27
2019-02-23T13:03:40.288Z,42.06
2019-02-23T13:06:13.525Z,41.20
2019-02-23T13:09:09.890Z,41.08
2019-02-23T13:11:49.305Z,42.14
2019-02-23T13:14:40.175Z,42.52
2019-02-23T13:17:28.752Z,41.81
2019-02-23T13:20:31.744Z,41.54
2019-02-23T13:23:31.093Z,41.02
2019-02-23T13:26:33.035Z,41.72
2019-02-23T13:29:21.389Z,41.99
2019-02-23T13:32:14.560Z,41.85
2019-02-23T13:35:19.938Z,41.95
2019-02-23T13:38:02.121Z,42.20
2019-02-23T13:40:59.605Z,42.02
2019-02-23T13:43:41.789Z,42.34
2019-02-23T13:46:26.928Z,42.77
2019-02-23T13:49:21.343Z,42.11
2019-02-23T13:51:57.827Z,42.48
2019-02-23T13:54:43.224Z,42.68
2019-02-23T13:57:35.991Z,42.79
2019-02-23T14:00:21.267Z,42.52
2019-02-23T14:03:23.694Z,42.32
2019-02-23T14:06:02.857Z,42.17
2019-02-23T14:08:42.264Z,42.19
2019-02-23T14:11:35.644Z,42.32
2019-02-23T14:14:21.318Z,42.34
2019-02-23T14:17:25.935Z,42.52
2019-02-23T14:20:21.525Z,42.70
2019-02-23T14:23:31.522Z,42.59
2019-02-23T14:26:08.022Z,42.74
2019-02-23T14:28:44.528Z,42.67
2019-02-23T14:31:38.924Z,42.54
2019-02-23T14:34:23.745Z,42.58
2019-02-23T14:37:05.944Z,42.66
2019-02-23T14:39:45.197Z,42.64
2019-02-23T14:42:27.504Z,42.70
2019-02-23T14:45:18.896Z,42.39
2019-02-23T14:48:01.351Z,41.83
2019-02-23T14:50:54.786Z,42.11
2019-02-23T14:53:43.127Z,41.99
2019-02-23T14:56:31.602Z,41.81
2019-02-23T14:59:32.587Z,41.76
2019-02-23T15:02:31.633Z,41.98
2019-02-23T15:05:13.676Z,41.51
2019-02-23T15:07:50.183Z,41.50
2019-02-23T15:10:29.588Z,41.72
2019-02-23T15:13:26.799Z,41.54
2019-02-23T15:16:21.144Z,41.51
2019-02-23T15:19:18.144Z,41.30
2019-02-23T15:22:14.569Z,41.54
2019-02-23T15:24:53.649Z,40.90
2019-02-23T15:27:49.734Z,41.08
2019-02-23T15:30:35.098Z,41.12
2019-02-23T15:33:14.346Z,41.24
2019-02-23T15:35:56.388Z,40.82
2019-02-23T15:38:44.632Z,40.92
2019-02-23T15:41:42.540Z,40.38
2019-02-23T15:44:52.003Z,40.55
2019-02-23T15:47:51.274Z,40.17
2019-02-23T15:50:24.516Z,40.29
2019-02-23T15:52:57.729Z,40.15
2019-02-23T15:55:30.953Z,40.42
2019-02-23T15:58:04.194Z,40.42
2019-02-23T16:00:37.439Z,40.36
2019-02-23T16:03:10.681Z,40.27
2019-02-23T16:05:43.912Z,40.50
2019-02-23T16:08:17.155Z,40.69
2019-02-23T16:10:50.381Z,40.78
2019-02-23T16:13:23.638Z,40.33
2019-02-23T16:15:56.873Z,40.33
2019-02-23T16:18:30.119Z,40.41
2019-02-23T16:21:03.353Z,40.80
2019-02-23T16:23:36.590Z,40.74
2019-02-23T16:26:09.822Z,41.00
2019-02-23T16:28:43.052Z,40.90
2019-02-23T16:31:16.276Z,41.05
2019-02-23T16:33:49.607Z,40.69
2019-02-23T16:36:22.840Z,40.65
2019-02-23T16:38:56.083Z,40.84
2019-02-23T16:41:30.280Z,40.78
2019-02-23T16:44:03.527Z,40.70
2019-02-23T16:46:36.753Z,40.61
2019-02-23T16:49:10.002Z,40.62
2019-02-23T16:51:43.319Z,40.90
2019-02-23T16:54:16.618Z,40.93
2019-02-23T16:56:49.816Z,40.90
2019-02-23T16:59:23.047Z,41.13
2019-02-23T17:01:56.285Z,41.11
2019-02-23T17:04:29.514Z,41.20
2019-02-23T17:07:02.756Z,41.14
2019-02-23T17:09:35.981Z,40.79
2019-02-23T17:12:09.229Z,40.66
2019-02-23T17:14:42.624Z,40.56
2019-02-23T17:17:15.790Z,40.81
2019-02-23T17:19:49.023Z,41.04
2019-02-23T17:22:22.273Z,41.01
2019-02-23T17:24:55.508Z,40.72
2019-02-23T17:27:36.215Z,40.62
2019-02-23T17:30:05.695Z,40.74
2019-02-23T17:32:38.964Z,40.79
2019-02-23T17:35:12.132Z,40.76
2019-02-23T17:37:45.376Z,40.79
2019-02-23T17:40:18.913Z,40.87
2019-02-23T17:42:52.170Z,40.84
2019-02-23T17:45:25.400Z,40.83
2019-02-23T17:47:58.649Z,40.85
2019-02-23T17:50:31.881Z,40.84
2019-02-23T17:53:05.121Z,40.85
2019-02-23T17:55:38.353Z,40.89
2019-02-23T17:58:11.605Z,40.87
2019-02-23T18:00:44.835Z,40.84
2019-02-23T18:03:18.082Z,40.78
2019-02-23T18:05:51.309Z,40.72
2019-02-23T18:08:24.557Z,40.64
2019-02-23T18:10:57.780Z,40.57
2019-02-23T18:13:31.016Z,40.52
2019-02-23T18:16:04.252Z,40.56
2019-02-23T18:18:37.495Z,40.59
2019-02-23T18:21:10.732Z,40.58
2019-02-23T18:23:43.985Z,40.64
2019-02-23T18:26:21.091Z,40.64
2019-02-23T18:28:52.152Z,40.61
2019-02-23T18:31:25.689Z,40.52
2019-02-23T18:33:58.937Z,40.53
2019-02-23T18:36:32.179Z,40.54
2019-02-23T18:39:05.429Z,40.53
2019-02-23T18:41:40.284Z,40.56
2019-02-23T18:44:13.533Z,40.58
2019-02-23T18:46:46.772Z,40.60
2019-02-23T18:49:20.019Z,40.52
2019-02-23T18:51:53.256Z,40.43
2019-02-23T18:54:26.497Z,40.37
2019-02-23T18:56:59.727Z,40.37
2019-02-23T18:59:32.973Z,40.37
2019-02-23T19:02:06.215Z,40.43
2019-02-23T19:04:39.466Z,40.43
2019-02-23T19:07:12.699Z,40.47
2019-02-23T19:09:45.936Z,40.41
2019-02-23T19:12:19.167Z,40.32
2019-02-23T19:14:52.419Z,40.25
2019-02-23T19:17:25.654Z,40.21
2019-02-23T19:19:58.914Z,40.15
2019-02-23T19:22:33.217Z,40.09
2019-02-23T19:25:08.592Z,40.06
2019-02-23T19:27:41.831Z,40.03
2019-02-23T19:30:15.068Z,40.04
2019-02-23T19:32:48.470Z,40.04
2019-02-23T19:35:21.713Z,40.04
2019-02-23T19:37:54.940Z,40.10
2019-02-23T19:40:28.198Z,40.05
2019-02-23T19:43:01.430Z,40.01
2019-02-23T19:45:34.947Z,39.96
2019-02-23T19:48:08.177Z,39.94
2019-02-23T19:50:44.956Z,39.96
2019-02-23T19:53:18.191Z,39.99
2019-02-23T19:55:51.438Z,40.01
2019-02-23T19:58:24.669Z,40.00
2019-02-23T20:00:57.921Z,40.02
2019-02-23T20:03:31.155Z,40.07
2019-02-23T20:06:04.417Z,40.05
2019-02-23T20:08:37.720Z,40.06
2019-02-23T20:11:11.032Z,40.07
2019-02-23T20:13:44.275Z,40.07
2019-02-23T20:16:18.184Z,40.07
2019-02-23T20:18:51.404Z,40.04
2019-02-23T20:21:24.649Z,40.01
2019-02-23T20:23:57.884Z,39.98
2019-02-23T20:26:31.128Z,40.00
2019-02-23T20:29:04.364Z,40.06
2019-02-23T20:31:37.613Z,40.14
2019-02-23T20:34:10.840Z,40.26
2019-02-23T20:36:44.077Z,40.33
2019-02-23T20:39:17.311Z,40.41
2019-02-23T20:41:50.569Z,40.44
2019-02-23T20:44:23.794Z,40.44
2019-02-23T20:46:58.663Z,40.42
2019-02-23T20:49:32.062Z,40.41
2019-02-23T20:52:05.309Z,40.40
2019-02-23T20:54:38.548Z,40.39
2019-02-23T20:57:14.089Z,40.42
2019-02-23T20:59:48.048Z,40.45
2019-02-23T21:02:21.481Z,40.48
2019-02-23T21:04:57.034Z,40.48
2019-02-23T21:07:30.298Z,40.50
2019-02-23T21:10:05.932Z,40.50
2019-02-23T21:12:39.172Z,40.48
2019-02-23T21:15:12.411Z,40.43
2019-02-23T21:17:45.738Z,40.48
2019-02-23T21:20:18.971Z,40.45
2019-02-23T21:22:52.221Z,40.49
2019-02-23T21:25:25.456Z,40.51
2019-02-23T21:27:58.700Z,40.58
2019-02-23T21:30:32.906Z,40.60
2019-02-23T21:33:08.950Z,40.71
2019-02-23T21:35:42.185Z,40.67
2019-02-23T21:38:15.428Z,40.67
2019-02-23T21:40:48.652Z,40.54
2019-02-23T21:43:21.917Z,40.48
2019-02-23T21:45:55.153Z,40.48
2019-02-23T21:48:28.397Z,40.51
2019-02-23T21:51:01.638Z,40.57
2019-02-23T21:53:35.945Z,40.74
2019-02-23T21:56:09.191Z,40.73
2019-02-23T21:58:42.440Z,40.76
2019-02-23T22:01:15.679Z,40.90
2019-02-23T22:03:48.919Z,41.01
2019-02-23T22:06:22.225Z,40.99
2019-02-23T22:08:55.465Z,41.09
2019-02-23T22:11:28.695Z,41.17
2019-02-23T22:14:02.905Z,41.23
2019-02-23T22:16:36.131Z,41.28
2019-02-23T22:19:09.388Z,41.28
2019-02-23T22:21:42.613Z,41.37
2019-02-23T22:24:15.874Z,41.26
2019-02-23T22:26:49.102Z,41.35
2019-02-23T22:29:22.352Z,41.42
2019-02-23T22:31:55.581Z,41.33
2019-02-23T22:34:28.832Z,41.32
2019-02-23T22:37:02.064Z,41.43
2019-02-23T22:39:35.308Z,41.48
2019-02-23T22:42:08.546Z,41.69
2019-02-23T22:44:41.792Z,41.65
2019-02-23T22:47:15.027Z,41.72
2019-02-23T22:49:49.256Z,41.71
2019-02-23T22:52:22.489Z,41.77
2019-02-23T22:54:55.744Z,41.83
2019-02-23T22:57:28.974Z,41.85
2019-02-23T23:00:02.483Z,41.93
2019-02-23T23:02:38.174Z,41.87
2019-02-23T23:05:11.702Z,41.82
2019-02-23T23:07:44.942Z,41.84
2019-02-23T23:10:18.181Z,41.93
2019-02-23T23:12:51.408Z,42.00
2019-02-23T23:15:24.649Z,42.01
2019-02-23T23:17:57.881Z,42.23
2019-02-23T23:20:31.123Z,42.22
2019-02-23T23:23:04.358Z,42.34
2019-02-23T23:25:38.589Z,42.18
2019-02-23T23:28:11.817Z,42.29
2019-02-23T23:30:45.068Z,42.20
2019-02-23T23:33:18.293Z,42.27
2019-02-23T23:35:51.547Z,42.24
2019-02-23T23:38:25.754Z,42.13
2019-02-23T23:40:58.996Z,42.25
2019-02-23T23:43:32.230Z,42.30
2019-02-23T23:46:05.487Z,42.32
2019-02-23T23:48:38.720Z,42.36
2019-02-23T23:51:11.973Z,42.52
2019-02-23T23:53:45.206Z,42.58
2019-02-23T23:56:18.463Z,42.70
2019-02-23T23:58:51.698Z,42.72
